This is the latest recevied weather packets stored in our database for station/object HS2GJW-1. If no packets are shown the sender has not sent any weather packets the latest 10 day(s).
| Time | Temp. | Humidity | Pressure | Rain* | Wind** | Luminosity | Snow |
|---|---|---|---|---|---|---|---|
| 1788491530 | 32.78° C | 80% | 1010 hPa | - | - | 0 W/m² | - |
| 1788490906 | 32.78° C | 82% | 1010 hPa | - | - | 0 W/m² | - |
| 1788490281 | 32.22° C | 84% | 1010 hPa | - | - | 0 W/m² | - |
| 1788489655 | 32.22° C | 86% | 1010 hPa | - | - | 0 W/m² | - |
| 1788489029 | 31.67° C | 86% | 1010 hPa | - | - | 0 W/m² | - |
| 1788488403 | 31.67° C | 91% | 1010 hPa | - | - | 0 W/m² | - |
| 1788487777 | 31.67° C | 94% | 1010 hPa | - | - | 0 W/m² | - |
| 1788487151 | 31.67° C | 98% | 1011 hPa | - | - | 0 W/m² | - |
| 1788486524 | 31.11° C | 99% | 1010 hPa | - | - | 0 W/m² | - |
| 1788485895 | 31.11° C | 99% | 1010 hPa | - | - | 0 W/m² | - |
| 1788485269 | 30.56° C | 99% | 1010 hPa | - | - | 0 W/m² | - |
| 1788484645 | 30.56° C | 99% | 1010 hPa | - | - | 0 W/m² | - |
| 1788484018 | 30° C | 99% | 1010 hPa | - | - | 0 W/m² | - |
| 1788483391 | 30° C | 99% | 1010 hPa | - | - | 0 W/m² | - |
| 1788482763 | 30° C | 99% | 1010 hPa | - | - | 0 W/m² | - |
| 1788482137 | 29.44° C | 99% | 1010 hPa | - | - | 0 W/m² | - |
| 1788481510 | 29.44° C | 99% | 1010 hPa | - | - | 0 W/m² | - |
| 1788480884 | 29.44° C | 99% | 1010 hPa | - | - | 0 W/m² | - |
| 1788480258 | 29.44° C | 99% | 1010 hPa | - | - | 0 W/m² | - |
| 1788479633 | 29.44° C | 99% | 1009 hPa | - | - | 0 W/m² | - |
| 1788479007 | 28.89° C | 99% | 1009 hPa | - | - | 0 W/m² | - |
| 1788478383 | 28.89° C | 99% | 1009 hPa | - | - | 0 W/m² | - |
| 1788477759 | 28.33° C | 99% | 1009 hPa | - | - | 0 W/m² | - |
| 1788477136 | 27.78° C | 99% | 1009 hPa | - | - | 0 W/m² | - |
| 1788437076 | 33.33° C | 75% | 1006 hPa | - | - | 0 W/m² | - |
* Rain since midnight (hover to see other rain measurements)
** Current wind speed in m/s (hover to see current wind gust speed)